createdAt,value
2016-10-07T23:04:30.281Z,19.08
2016-10-07T23:05:45.049Z,18.95
2016-10-07T23:06:58.203Z,19.66
2016-10-07T23:08:11.852Z,20.2
2016-10-07T23:09:24.999Z,20.01
2016-10-07T23:10:38.935Z,19.69
2016-10-07T23:11:52.043Z,19.22
2016-10-07T23:13:05.156Z,18.9
2016-10-07T23:14:18.947Z,18.75
2016-10-07T23:15:32.045Z,18.41
2016-10-07T23:16:45.852Z,18.44
2016-10-07T23:18:42.822Z,18.29
2016-10-07T23:19:56.448Z,18.29
2016-10-07T23:21:09.601Z,18.26
2016-10-07T23:22:23.210Z,18.58
2016-10-07T23:23:36.888Z,18.52
2016-10-07T23:24:49.978Z,18.41
2016-10-07T23:26:03.617Z,18.47
2016-10-07T23:27:16.702Z,20.74
2016-10-07T23:28:30.079Z,22.61
2016-10-07T23:29:43.225Z,22.52
2016-10-07T23:30:56.905Z,22.09
2016-10-07T23:33:12.713Z,20.92
2016-10-07T23:34:26.374Z,20.17
2016-10-07T23:35:40.030Z,19.43
2016-10-07T23:36:53.190Z,19.18
2016-10-07T23:38:06.877Z,18.92
2016-10-07T23:39:20.483Z,18.63
2016-10-07T23:40:34.126Z,18.58
2016-10-07T23:41:47.211Z,18.37
2016-10-07T23:43:00.254Z,18.3
2016-10-07T23:44:13.859Z,18.21
2016-10-07T23:45:27.499Z,18.26
2016-10-07T23:51:30.588Z,18.21
2016-10-07T23:52:44.195Z,18.23
2016-10-07T23:53:58.372Z,18.14
2016-10-07T23:55:10.894Z,18.03
2016-10-07T23:56:24.573Z,18.08
2016-10-07T23:57:38.203Z,18.1
2016-10-07T23:58:51.301Z,18.07
